sensor_id;sensor_type;location;lat;lon;timestamp;temperature;humidity
15700;DHT22;7950;42.744;23.174;2023-08-06T00:00:52;19.20;99.90
15700;DHT22;7950;42.744;23.174;2023-08-06T00:03:20;19.30;99.90
15700;DHT22;7950;42.744;23.174;2023-08-06T00:05:49;19.40;99.90
15700;DHT22;7950;42.744;23.174;2023-08-06T00:08:17;19.40;99.90
15700;DHT22;7950;42.744;23.174;2023-08-06T00:10:47;19.50;99.90
15700;DHT22;7950;42.744;23.174;2023-08-06T00:13:16;19.60;99.90
15700;DHT22;7950;42.744;23.174;2023-08-06T00:15:45;19.70;99.90
15700;DHT22;7950;42.744;23.174;2023-08-06T00:18:15;19.70;99.90
15700;DHT22;7950;42.744;23.174;2023-08-06T00:20:43;19.70;99.90
15700;DHT22;7950;42.744;23.174;2023-08-06T00:23:12;19.70;99.90
15700;DHT22;7950;42.744;23.174;2023-08-06T00:25:40;19.70;99.90
15700;DHT22;7950;42.744;23.174;2023-08-06T00:28:09;19.80;99.90
15700;DHT22;7950;42.744;23.174;2023-08-06T00:30:37;19.80;99.90
15700;DHT22;7950;42.744;23.174;2023-08-06T00:33:06;19.70;99.90
15700;DHT22;7950;42.744;23.174;2023-08-06T00:35:36;19.80;99.90
15700;DHT22;7950;42.744;23.174;2023-08-06T00:38:04;19.90;99.90
15700;DHT22;7950;42.744;23.174;2023-08-06T00:40:33;19.90;99.90
15700;DHT22;7950;42.744;23.174;2023-08-06T00:43:01;19.80;99.90
15700;DHT22;7950;42.744;23.174;2023-08-06T00:45:30;19.80;99.90
15700;DHT22;7950;42.744;23.174;2023-08-06T00:48:02;19.80;99.90
15700;DHT22;7950;42.744;23.174;2023-08-06T00:50:33;19.80;99.90
15700;DHT22;7950;42.744;23.174;2023-08-06T00:53:03;19.80;99.90
15700;DHT22;7950;42.744;23.174;2023-08-06T00:55:32;19.70;99.90
15700;DHT22;7950;42.744;23.174;2023-08-06T00:58:01;19.70;99.90
15700;DHT22;7950;42.744;23.174;2023-08-06T01:00:30;19.80;99.90
15700;DHT22;7950;42.744;23.174;2023-08-06T01:02:59;19.80;99.90
15700;DHT22;7950;42.744;23.174;2023-08-06T01:05:28;19.80;99.90
15700;DHT22;7950;42.744;23.174;2023-08-06T01:08:15;19.70;99.90
15700;DHT22;7950;42.744;23.174;2023-08-06T01:11:00;19.70;99.90
15700;DHT22;7950;42.744;23.174;2023-08-06T01:13:42;19.80;99.90
15700;DHT22;7950;42.744;23.174;2023-08-06T01:16:15;19.80;99.90
15700;DHT22;7950;42.744;23.174;2023-08-06T01:18:47;19.80;99.90
15700;DHT22;7950;42.744;23.174;2023-08-06T01:21:18;19.80;99.90
15700;DHT22;7950;42.744;23.174;2023-08-06T01:23:48;19.90;99.90
15700;DHT22;7950;42.744;23.174;2023-08-06T01:26:23;19.90;99.90
15700;DHT22;7950;42.744;23.174;2023-08-06T01:29:03;20.00;99.90
15700;DHT22;7950;42.744;23.174;2023-08-06T01:31:39;20.10;99.90
15700;DHT22;7950;42.744;23.174;2023-08-06T01:34:28;20.10;99.90
15700;DHT22;7950;42.744;23.174;2023-08-06T01:37:03;20.10;99.90
15700;DHT22;7950;42.744;23.174;2023-08-06T01:39:33;20.00;99.90
15700;DHT22;7950;42.744;23.174;2023-08-06T01:42:02;19.90;99.90
15700;DHT22;7950;42.744;23.174;2023-08-06T01:44:31;19.80;99.90
15700;DHT22;7950;42.744;23.174;2023-08-06T01:46:59;19.80;99.90
15700;DHT22;7950;42.744;23.174;2023-08-06T01:49:28;19.90;99.90
15700;DHT22;7950;42.744;23.174;2023-08-06T01:51:57;19.90;99.90
15700;DHT22;7950;42.744;23.174;2023-08-06T01:54:27;19.80;99.90
15700;DHT22;7950;42.744;23.174;2023-08-06T01:56:55;19.70;99.90
15700;DHT22;7950;42.744;23.174;2023-08-06T01:59:25;19.60;99.90
15700;DHT22;7950;42.744;23.174;2023-08-06T02:01:53;19.60;99.90
15700;DHT22;7950;42.744;23.174;2023-08-06T02:04:22;19.60;99.90
15700;DHT22;7950;42.744;23.174;2023-08-06T02:06:51;19.50;99.90
15700;DHT22;7950;42.744;23.174;2023-08-06T02:09:19;19.50;99.90
15700;DHT22;7950;42.744;23.174;2023-08-06T02:11:49;19.50;99.90
15700;DHT22;7950;42.744;23.174;2023-08-06T02:14:18;19.50;99.90
15700;DHT22;7950;42.744;23.174;2023-08-06T02:16:47;19.60;99.90
15700;DHT22;7950;42.744;23.174;2023-08-06T02:19:16;19.60;99.90
15700;DHT22;7950;42.744;23.174;2023-08-06T02:21:45;19.70;99.90
15700;DHT22;7950;42.744;23.174;2023-08-06T02:24:13;19.80;99.90
15700;DHT22;7950;42.744;23.174;2023-08-06T02:26:42;19.80;99.90
15700;DHT22;7950;42.744;23.174;2023-08-06T02:29:12;19.80;99.90
15700;DHT22;7950;42.744;23.174;2023-08-06T02:31:40;19.90;99.90
15700;DHT22;7950;42.744;23.174;2023-08-06T02:34:09;19.90;99.90
15700;DHT22;7950;42.744;23.174;2023-08-06T02:36:37;19.70;99.90
15700;DHT22;7950;42.744;23.174;2023-08-06T02:39:06;19.60;99.90
15700;DHT22;7950;42.744;23.174;2023-08-06T02:41:34;19.60;99.90
15700;DHT22;7950;42.744;23.174;2023-08-06T02:44:03;19.40;99.90
15700;DHT22;7950;42.744;23.174;2023-08-06T02:46:33;19.40;99.90
15700;DHT22;7950;42.744;23.174;2023-08-06T02:49:02;19.40;99.90
15700;DHT22;7950;42.744;23.174;2023-08-06T02:51:30;19.40;99.90
15700;DHT22;7950;42.744;23.174;2023-08-06T02:53:58;19.40;99.90
15700;DHT22;7950;42.744;23.174;2023-08-06T02:56:27;19.40;99.90
15700;DHT22;7950;42.744;23.174;2023-08-06T02:58:55;19.40;99.90
15700;DHT22;7950;42.744;23.174;2023-08-06T03:01:24;19.40;99.90
15700;DHT22;7950;42.744;23.174;2023-08-06T03:03:55;19.50;99.90
15700;DHT22;7950;42.744;23.174;2023-08-06T03:06:23;19.60;99.90
15700;DHT22;7950;42.744;23.174;2023-08-06T03:08:52;19.60;99.90
15700;DHT22;7950;42.744;23.174;2023-08-06T03:11:20;19.60;99.90
15700;DHT22;7950;42.744;23.174;2023-08-06T03:13:49;19.70;99.90
15700;DHT22;7950;42.744;23.174;2023-08-06T03:16:17;19.80;99.90
15700;DHT22;7950;42.744;23.174;2023-08-06T03:18:46;19.80;99.90
15700;DHT22;7950;42.744;23.174;2023-08-06T03:21:16;19.90;99.90
15700;DHT22;7950;42.744;23.174;2023-08-06T03:23:47;19.90;99.90
15700;DHT22;7950;42.744;23.174;2023-08-06T03:26:16;19.90;99.90
15700;DHT22;7950;42.744;23.174;2023-08-06T03:28:44;19.90;99.90
15700;DHT22;7950;42.744;23.174;2023-08-06T03:31:13;19.80;99.90
15700;DHT22;7950;42.744;23.174;2023-08-06T03:33:42;19.80;99.90
15700;DHT22;7950;42.744;23.174;2023-08-06T03:36:10;19.70;99.90
15700;DHT22;7950;42.744;23.174;2023-08-06T03:38:40;19.70;99.90
15700;DHT22;7950;42.744;23.174;2023-08-06T03:41:09;19.70;99.90
15700;DHT22;7950;42.744;23.174;2023-08-06T03:43:37;19.70;99.90
15700;DHT22;7950;42.744;23.174;2023-08-06T03:46:06;19.80;99.90
15700;DHT22;7950;42.744;23.174;2023-08-06T03:48:34;19.80;99.90
15700;DHT22;7950;42.744;23.174;2023-08-06T03:51:03;20.00;99.90
15700;DHT22;7950;42.744;23.174;2023-08-06T03:53:32;20.00;99.90
15700;DHT22;7950;42.744;23.174;2023-08-06T03:56:02;20.00;99.90
15700;DHT22;7950;42.744;23.174;2023-08-06T03:58:31;20.00;99.90
15700;DHT22;7950;42.744;23.174;2023-08-06T04:01:00;20.00;99.90
15700;DHT22;7950;42.744;23.174;2023-08-06T04:03:30;20.10;99.90
15700;DHT22;7950;42.744;23.174;2023-08-06T04:05:58;20.00;99.90
15700;DHT22;7950;42.744;23.174;2023-08-06T04:08:28;19.90;99.90
15700;DHT22;7950;42.744;23.174;2023-08-06T04:10:56;19.80;99.90
15700;DHT22;7950;42.744;23.174;2023-08-06T04:13:26;19.80;99.90
15700;DHT22;7950;42.744;23.174;2023-08-06T04:15:54;19.80;99.90
15700;DHT22;7950;42.744;23.174;2023-08-06T04:18:24;19.90;99.90
15700;DHT22;7950;42.744;23.174;2023-08-06T04:20:52;20.00;99.90
15700;DHT22;7950;42.744;23.174;2023-08-06T04:23:22;20.00;99.90
15700;DHT22;7950;42.744;23.174;2023-08-06T04:25:50;19.90;99.90
15700;DHT22;7950;42.744;23.174;2023-08-06T04:28:19;19.90;99.90
15700;DHT22;7950;42.744;23.174;2023-08-06T04:30:49;20.00;99.90
15700;DHT22;7950;42.744;23.174;2023-08-06T04:33:18;20.00;99.90
15700;DHT22;7950;42.744;23.174;2023-08-06T04:35:46;20.10;99.90
15700;DHT22;7950;42.744;23.174;2023-08-06T04:38:15;20.10;99.90
15700;DHT22;7950;42.744;23.174;2023-08-06T04:40:43;20.20;99.90
15700;DHT22;7950;42.744;23.174;2023-08-06T04:43:11;20.20;99.90
15700;DHT22;7950;42.744;23.174;2023-08-06T04:45:46;20.20;99.90
15700;DHT22;7950;42.744;23.174;2023-08-06T04:48:16;20.20;99.90
15700;DHT22;7950;42.744;23.174;2023-08-06T04:50:44;20.30;99.90
15700;DHT22;7950;42.744;23.174;2023-08-06T04:53:13;20.30;99.90
15700;DHT22;7950;42.744;23.174;2023-08-06T04:55:42;20.40;99.90
15700;DHT22;7950;42.744;23.174;2023-08-06T04:58:12;20.50;99.90
15700;DHT22;7950;42.744;23.174;2023-08-06T05:00:40;20.60;99.90
15700;DHT22;7950;42.744;23.174;2023-08-06T05:03:09;20.60;99.90
15700;DHT22;7950;42.744;23.174;2023-08-06T05:05:41;20.60;99.90
15700;DHT22;7950;42.744;23.174;2023-08-06T05:08:14;20.60;99.90
15700;DHT22;7950;42.744;23.174;2023-08-06T05:10:44;20.50;99.90
15700;DHT22;7950;42.744;23.174;2023-08-06T05:13:13;20.50;99.90
15700;DHT22;7950;42.744;23.174;2023-08-06T05:15:42;20.40;99.90
15700;DHT22;7950;42.744;23.174;2023-08-06T05:18:12;20.40;99.90
15700;DHT22;7950;42.744;23.174;2023-08-06T05:20:42;20.30;99.90
15700;DHT22;7950;42.744;23.174;2023-08-06T05:23:11;20.30;99.90
15700;DHT22;7950;42.744;23.174;2023-08-06T05:25:40;20.30;99.90
15700;DHT22;7950;42.744;23.174;2023-08-06T05:28:08;20.40;99.90
15700;DHT22;7950;42.744;23.174;2023-08-06T05:30:39;20.50;99.90
15700;DHT22;7950;42.744;23.174;2023-08-06T05:33:08;20.60;99.90
15700;DHT22;7950;42.744;23.174;2023-08-06T05:35:36;20.70;99.90
15700;DHT22;7950;42.744;23.174;2023-08-06T05:38:06;20.80;99.90
15700;DHT22;7950;42.744;23.174;2023-08-06T05:40:35;20.90;99.90
15700;DHT22;7950;42.744;23.174;2023-08-06T05:43:03;21.10;99.90
15700;DHT22;7950;42.744;23.174;2023-08-06T05:45:32;21.20;99.90
15700;DHT22;7950;42.744;23.174;2023-08-06T05:48:00;21.30;99.90
15700;DHT22;7950;42.744;23.174;2023-08-06T05:50:29;21.40;99.90
15700;DHT22;7950;42.744;23.174;2023-08-06T05:52:57;21.70;99.90
15700;DHT22;7950;42.744;23.174;2023-08-06T05:55:29;21.80;99.90
15700;DHT22;7950;42.744;23.174;2023-08-06T05:57:59;22.00;99.90
15700;DHT22;7950;42.744;23.174;2023-08-06T06:00:27;22.10;99.90
15700;DHT22;7950;42.744;23.174;2023-08-06T06:02:56;22.00;99.90
15700;DHT22;7950;42.744;23.174;2023-08-06T06:05:25;21.90;99.90
15700;DHT22;7950;42.744;23.174;2023-08-06T06:07:53;21.80;99.90
15700;DHT22;7950;42.744;23.174;2023-08-06T06:10:22;21.80;99.90
15700;DHT22;7950;42.744;23.174;2023-08-06T06:12:52;21.80;99.90
15700;DHT22;7950;42.744;23.174;2023-08-06T06:15:20;21.80;99.90
15700;DHT22;7950;42.744;23.174;2023-08-06T06:17:49;21.90;99.90
15700;DHT22;7950;42.744;23.174;2023-08-06T06:20:18;22.10;99.90
15700;DHT22;7950;42.744;23.174;2023-08-06T06:22:46;22.30;99.90
15700;DHT22;7950;42.744;23.174;2023-08-06T06:25:15;22.60;99.90
15700;DHT22;7950;42.744;23.174;2023-08-06T06:27:43;22.90;99.90
15700;DHT22;7950;42.744;23.174;2023-08-06T06:30:13;23.10;99.90
15700;DHT22;7950;42.744;23.174;2023-08-06T06:32:42;23.10;99.90
15700;DHT22;7950;42.744;23.174;2023-08-06T06:35:10;23.10;99.90
15700;DHT22;7950;42.744;23.174;2023-08-06T06:37:40;23.00;99.90
15700;DHT22;7950;42.744;23.174;2023-08-06T06:40:09;22.90;99.90
15700;DHT22;7950;42.744;23.174;2023-08-06T06:42:39;22.80;99.90
15700;DHT22;7950;42.744;23.174;2023-08-06T06:45:08;22.90;99.90
15700;DHT22;7950;42.744;23.174;2023-08-06T06:47:39;23.00;99.90
15700;DHT22;7950;42.744;23.174;2023-08-06T06:50:08;22.90;99.90
15700;DHT22;7950;42.744;23.174;2023-08-06T06:52:37;22.90;99.90
15700;DHT22;7950;42.744;23.174;2023-08-06T06:55:06;22.90;99.90
15700;DHT22;7950;42.744;23.174;2023-08-06T06:57:35;22.80;99.90
15700;DHT22;7950;42.744;23.174;2023-08-06T07:00:04;22.80;99.90
15700;DHT22;7950;42.744;23.174;2023-08-06T07:02:34;22.90;99.90
15700;DHT22;7950;42.744;23.174;2023-08-06T07:05:04;23.00;99.90
15700;DHT22;7950;42.744;23.174;2023-08-06T07:07:34;23.10;99.90
15700;DHT22;7950;42.744;23.174;2023-08-06T07:10:05;23.10;99.90
15700;DHT22;7950;42.744;23.174;2023-08-06T07:12:34;22.90;99.90
15700;DHT22;7950;42.744;23.174;2023-08-06T07:15:05;22.90;99.90
15700;DHT22;7950;42.744;23.174;2023-08-06T07:17:35;22.90;99.90
15700;DHT22;7950;42.744;23.174;2023-08-06T07:20:06;22.90;99.90
15700;DHT22;7950;42.744;23.174;2023-08-06T07:22:35;23.00;99.90
15700;DHT22;7950;42.744;23.174;2023-08-06T07:25:04;23.00;99.90
15700;DHT22;7950;42.744;23.174;2023-08-06T07:27:33;23.00;99.90
15700;DHT22;7950;42.744;23.174;2023-08-06T07:30:02;23.10;99.90
15700;DHT22;7950;42.744;23.174;2023-08-06T07:32:32;23.10;99.90
15700;DHT22;7950;42.744;23.174;2023-08-06T07:35:01;23.10;99.90
15700;DHT22;7950;42.744;23.174;2023-08-06T07:37:31;23.20;99.90
15700;DHT22;7950;42.744;23.174;2023-08-06T07:39:59;23.30;99.90
15700;DHT22;7950;42.744;23.174;2023-08-06T07:42:28;23.40;99.90
15700;DHT22;7950;42.744;23.174;2023-08-06T07:44:58;23.40;99.90
15700;DHT22;7950;42.744;23.174;2023-08-06T07:47:27;23.40;99.90
15700;DHT22;7950;42.744;23.174;2023-08-06T07:49:55;23.30;99.90
15700;DHT22;7950;42.744;23.174;2023-08-06T07:52:24;23.30;99.90
15700;DHT22;7950;42.744;23.174;2023-08-06T07:54:54;23.50;99.90
15700;DHT22;7950;42.744;23.174;2023-08-06T07:57:22;23.70;99.90
15700;DHT22;7950;42.744;23.174;2023-08-06T07:59:51;24.10;99.90
15700;DHT22;7950;42.744;23.174;2023-08-06T08:02:20;24.30;99.90
15700;DHT22;7950;42.744;23.174;2023-08-06T08:04:49;24.60;99.90
15700;DHT22;7950;42.744;23.174;2023-08-06T08:07:18;24.70;99.90
15700;DHT22;7950;42.744;23.174;2023-08-06T08:09:47;24.80;99.90
15700;DHT22;7950;42.744;23.174;2023-08-06T08:12:17;24.80;99.90
15700;DHT22;7950;42.744;23.174;2023-08-06T08:14:46;24.80;99.90
15700;DHT22;7950;42.744;23.174;2023-08-06T08:17:14;24.80;99.90
15700;DHT22;7950;42.744;23.174;2023-08-06T08:19:43;24.80;99.90
15700;DHT22;7950;42.744;23.174;2023-08-06T08:22:12;24.90;99.90
15700;DHT22;7950;42.744;23.174;2023-08-06T08:24:40;25.10;99.90
15700;DHT22;7950;42.744;23.174;2023-08-06T08:27:09;25.20;99.90
15700;DHT22;7950;42.744;23.174;2023-08-06T08:29:39;25.40;99.90
15700;DHT22;7950;42.744;23.174;2023-08-06T08:32:07;25.50;99.90
15700;DHT22;7950;42.744;23.174;2023-08-06T08:34:37;25.40;99.90
15700;DHT22;7950;42.744;23.174;2023-08-06T08:37:05;25.40;99.90
15700;DHT22;7950;42.744;23.174;2023-08-06T08:39:34;25.50;99.90
15700;DHT22;7950;42.744;23.174;2023-08-06T08:42:03;25.60;99.90
15700;DHT22;7950;42.744;23.174;2023-08-06T08:44:32;25.50;99.90
15700;DHT22;7950;42.744;23.174;2023-08-06T08:47:05;25.40;99.90
15700;DHT22;7950;42.744;23.174;2023-08-06T08:49:36;25.40;99.90
15700;DHT22;7950;42.744;23.174;2023-08-06T08:52:05;25.40;99.90
15700;DHT22;7950;42.744;23.174;2023-08-06T08:54:38;25.50;99.90
15700;DHT22;7950;42.744;23.174;2023-08-06T08:57:07;25.60;99.90
15700;DHT22;7950;42.744;23.174;2023-08-06T08:59:36;25.70;99.90
15700;DHT22;7950;42.744;23.174;2023-08-06T09:02:08;25.60;99.90
15700;DHT22;7950;42.744;23.174;2023-08-06T09:04:41;25.70;99.90
15700;DHT22;7950;42.744;23.174;2023-08-06T09:07:14;25.90;99.90
15700;DHT22;7950;42.744;23.174;2023-08-06T09:09:48;25.90;99.70
15700;DHT22;7950;42.744;23.174;2023-08-06T09:12:17;25.90;99.70
15700;DHT22;7950;42.744;23.174;2023-08-06T09:14:46;26.10;99.40
15700;DHT22;7950;42.744;23.174;2023-08-06T09:17:16;26.10;98.30
15700;DHT22;7950;42.744;23.174;2023-08-06T09:19:47;26.10;96.20
15700;DHT22;7950;42.744;23.174;2023-08-06T09:22:16;26.30;97.00
15700;DHT22;7950;42.744;23.174;2023-08-06T09:24:45;26.40;94.70
15700;DHT22;7950;42.744;23.174;2023-08-06T09:27:14;26.40;95.60
15700;DHT22;7950;42.744;23.174;2023-08-06T09:29:43;26.50;95.30
15700;DHT22;7950;42.744;23.174;2023-08-06T09:32:13;26.60;93.00
15700;DHT22;7950;42.744;23.174;2023-08-06T09:34:43;26.60;92.90
15700;DHT22;7950;42.744;23.174;2023-08-06T09:37:12;26.70;93.20
15700;DHT22;7950;42.744;23.174;2023-08-06T09:39:40;26.80;90.50
15700;DHT22;7950;42.744;23.174;2023-08-06T09:42:09;26.80;88.60
15700;DHT22;7950;42.744;23.174;2023-08-06T09:44:40;26.70;88.60
15700;DHT22;7950;42.744;23.174;2023-08-06T09:47:09;26.80;92.40
15700;DHT22;7950;42.744;23.174;2023-08-06T09:49:43;26.80;88.50
15700;DHT22;7950;42.744;23.174;2023-08-06T09:52:13;27.00;90.30
15700;DHT22;7950;42.744;23.174;2023-08-06T09:54:43;27.00;90.20
15700;DHT22;7950;42.744;23.174;2023-08-06T09:57:13;27.00;90.00
15700;DHT22;7950;42.744;23.174;2023-08-06T09:59:42;26.80;90.10
15700;DHT22;7950;42.744;23.174;2023-08-06T10:02:13;26.60;91.60
15700;DHT22;7950;42.744;23.174;2023-08-06T10:04:44;26.40;92.50
15700;DHT22;7950;42.744;23.174;2023-08-06T10:07:21;26.20;93.80
15700;DHT22;7950;42.744;23.174;2023-08-06T10:09:51;26.10;95.10
15700;DHT22;7950;42.744;23.174;2023-08-06T10:12:20;25.90;95.00
15700;DHT22;7950;42.744;23.174;2023-08-06T10:14:50;25.80;94.10
15700;DHT22;7950;42.744;23.174;2023-08-06T10:17:21;25.60;94.80
15700;DHT22;7950;42.744;23.174;2023-08-06T10:20:06;25.60;97.80
15700;DHT22;7950;42.744;23.174;2023-08-06T10:22:36;25.60;97.40
15700;DHT22;7950;42.744;23.174;2023-08-06T10:25:05;25.50;95.50
15700;DHT22;7950;42.744;23.174;2023-08-06T10:27:35;25.50;96.00
15700;DHT22;7950;42.744;23.174;2023-08-06T10:30:24;25.40;97.00
15700;DHT22;7950;42.744;23.174;2023-08-06T10:32:55;25.30;96.90
15700;DHT22;7950;42.744;23.174;2023-08-06T10:35:30;25.30;95.90
15700;DHT22;7950;42.744;23.174;2023-08-06T10:38:08;25.20;96.00
15700;DHT22;7950;42.744;23.174;2023-08-06T10:40:40;25.30;97.40
15700;DHT22;7950;42.744;23.174;2023-08-06T10:43:25;25.30;97.20
15700;DHT22;7950;42.744;23.174;2023-08-06T10:45:55;25.40;98.00
15700;DHT22;7950;42.744;23.174;2023-08-06T10:48:29;25.40;96.80
15700;DHT22;7950;42.744;23.174;2023-08-06T10:51:00;25.40;96.60
15700;DHT22;7950;42.744;23.174;2023-08-06T10:53:29;25.20;99.70
15700;DHT22;7950;42.744;23.174;2023-08-06T10:56:00;25.10;99.90
15700;DHT22;7950;42.744;23.174;2023-08-06T10:58:32;24.90;99.90
15700;DHT22;7950;42.744;23.174;2023-08-06T11:01:01;24.70;99.90
15700;DHT22;7950;42.744;23.174;2023-08-06T11:03:31;24.50;99.90
15700;DHT22;7950;42.744;23.174;2023-08-06T11:06:02;24.60;99.90
15700;DHT22;7950;42.744;23.174;2023-08-06T11:08:35;24.60;99.90
15700;DHT22;7950;42.744;23.174;2023-08-06T11:11:09;24.60;99.90
15700;DHT22;7950;42.744;23.174;2023-08-06T11:13:40;24.60;99.90
15700;DHT22;7950;42.744;23.174;2023-08-06T11:16:09;24.70;99.90
15700;DHT22;7950;42.744;23.174;2023-08-06T11:18:40;24.80;99.90
15700;DHT22;7950;42.744;23.174;2023-08-06T11:21:10;25.30;99.90
15700;DHT22;7950;42.744;23.174;2023-08-06T11:23:40;25.80;99.00
15700;DHT22;7950;42.744;23.174;2023-08-06T11:26:09;26.00;95.70
15700;DHT22;7950;42.744;23.174;2023-08-06T11:28:37;26.00;93.80
15700;DHT22;7950;42.744;23.174;2023-08-06T11:31:06;25.90;94.90
15700;DHT22;7950;42.744;23.174;2023-08-06T11:33:34;26.00;94.00
15700;DHT22;7950;42.744;23.174;2023-08-06T11:36:03;26.00;91.00
15700;DHT22;7950;42.744;23.174;2023-08-06T11:38:34;26.00;91.70
15700;DHT22;7950;42.744;23.174;2023-08-06T11:41:02;25.90;89.20
15700;DHT22;7950;42.744;23.174;2023-08-06T11:43:31;26.00;89.40
15700;DHT22;7950;42.744;23.174;2023-08-06T11:46:00;26.20;90.60
15700;DHT22;7950;42.744;23.174;2023-08-06T11:48:28;26.50;90.30
15700;DHT22;7950;42.744;23.174;2023-08-06T11:50:57;26.50;83.50
15700;DHT22;7950;42.744;23.174;2023-08-06T11:53:27;26.20;85.80
15700;DHT22;7950;42.744;23.174;2023-08-06T11:55:58;25.90;88.10
15700;DHT22;7950;42.744;23.174;2023-08-06T11:58:29;25.80;86.50
15700;DHT22;7950;42.744;23.174;2023-08-06T12:00:58;25.70;87.20
15700;DHT22;7950;42.744;23.174;2023-08-06T12:03:26;25.80;88.00
15700;DHT22;7950;42.744;23.174;2023-08-06T12:05:57;26.20;89.50
15700;DHT22;7950;42.744;23.174;2023-08-06T12:08:26;26.40;86.10
15700;DHT22;7950;42.744;23.174;2023-08-06T12:10:55;26.70;88.80
15700;DHT22;7950;42.744;23.174;2023-08-06T12:13:25;27.00;86.00
15700;DHT22;7950;42.744;23.174;2023-08-06T12:15:54;27.30;81.60
15700;DHT22;7950;42.744;23.174;2023-08-06T12:18:24;27.60;82.80
15700;DHT22;7950;42.744;23.174;2023-08-06T12:20:53;27.80;79.80
15700;DHT22;7950;42.744;23.174;2023-08-06T12:23:21;28.00;81.40
15700;DHT22;7950;42.744;23.174;2023-08-06T12:25:49;27.90;76.40
15700;DHT22;7950;42.744;23.174;2023-08-06T12:28:18;27.50;75.90
15700;DHT22;7950;42.744;23.174;2023-08-06T12:30:51;27.10;76.50
15700;DHT22;7950;42.744;23.174;2023-08-06T12:33:22;27.00;79.40
15700;DHT22;7950;42.744;23.174;2023-08-06T12:35:50;27.20;79.60
15700;DHT22;7950;42.744;23.174;2023-08-06T12:38:21;27.20;76.90
15700;DHT22;7950;42.744;23.174;2023-08-06T12:40:50;27.10;80.10
15700;DHT22;7950;42.744;23.174;2023-08-06T12:43:19;27.10;79.30
15700;DHT22;7950;42.744;23.174;2023-08-06T12:45:47;27.00;79.10
15700;DHT22;7950;42.744;23.174;2023-08-06T12:48:17;26.80;78.80
15700;DHT22;7950;42.744;23.174;2023-08-06T12:50:46;26.50;80.20
15700;DHT22;7950;42.744;23.174;2023-08-06T12:53:16;26.40;80.00
15700;DHT22;7950;42.744;23.174;2023-08-06T12:55:47;26.30;80.40
15700;DHT22;7950;42.744;23.174;2023-08-06T12:58:16;26.30;83.10
15700;DHT22;7950;42.744;23.174;2023-08-06T13:00:44;26.50;83.60
15700;DHT22;7950;42.744;23.174;2023-08-06T13:03:13;26.80;83.70
15700;DHT22;7950;42.744;23.174;2023-08-06T13:05:43;26.90;81.10
15700;DHT22;7950;42.744;23.174;2023-08-06T13:08:12;26.90;82.80
15700;DHT22;7950;42.744;23.174;2023-08-06T13:10:40;26.90;82.30
15700;DHT22;7950;42.744;23.174;2023-08-06T13:13:09;26.90;82.90
15700;DHT22;7950;42.744;23.174;2023-08-06T13:15:38;26.80;83.20
15700;DHT22;7950;42.744;23.174;2023-08-06T13:18:06;26.70;82.90
15700;DHT22;7950;42.744;23.174;2023-08-06T13:20:38;26.50;82.50
15700;DHT22;7950;42.744;23.174;2023-08-06T13:23:09;26.30;84.80
15700;DHT22;7950;42.744;23.174;2023-08-06T13:25:38;26.20;86.00
15700;DHT22;7950;42.744;23.174;2023-08-06T13:28:07;26.10;84.40
15700;DHT22;7950;42.744;23.174;2023-08-06T13:30:36;26.20;82.40
15700;DHT22;7950;42.744;23.174;2023-08-06T13:33:09;26.20;82.50
15700;DHT22;7950;42.744;23.174;2023-08-06T13:35:38;26.30;80.90
15700;DHT22;7950;42.744;23.174;2023-08-06T13:38:08;26.40;79.80
15700;DHT22;7950;42.744;23.174;2023-08-06T13:40:37;26.60;79.30
15700;DHT22;7950;42.744;23.174;2023-08-06T13:43:06;26.60;80.70
15700;DHT22;7950;42.744;23.174;2023-08-06T13:45:35;26.60;79.10
15700;DHT22;7950;42.744;23.174;2023-08-06T13:48:04;26.50;78.60
15700;DHT22;7950;42.744;23.174;2023-08-06T13:50:33;26.40;81.20
15700;DHT22;7950;42.744;23.174;2023-08-06T13:53:03;26.50;81.70
15700;DHT22;7950;42.744;23.174;2023-08-06T13:55:33;26.70;80.90
15700;DHT22;7950;42.744;23.174;2023-08-06T13:58:02;26.90;81.30
15700;DHT22;7950;42.744;23.174;2023-08-06T14:00:30;27.20;80.00
15700;DHT22;7950;42.744;23.174;2023-08-06T14:02:59;27.40;77.40
15700;DHT22;7950;42.744;23.174;2023-08-06T14:05:28;27.50;75.60
15700;DHT22;7950;42.744;23.174;2023-08-06T14:07:56;27.50;76.70
15700;DHT22;7950;42.744;23.174;2023-08-06T14:10:25;27.60;75.40
15700;DHT22;7950;42.744;23.174;2023-08-06T14:12:54;27.60;74.00
15700;DHT22;7950;42.744;23.174;2023-08-06T14:15:36;27.30;74.50
15700;DHT22;7950;42.744;23.174;2023-08-06T14:18:07;27.30;75.60
15700;DHT22;7950;42.744;23.174;2023-08-06T14:20:36;27.50;74.80
15700;DHT22;7950;42.744;23.174;2023-08-06T14:23:04;27.70;74.50
15700;DHT22;7950;42.744;23.174;2023-08-06T14:25:33;27.80;73.90
15700;DHT22;7950;42.744;23.174;2023-08-06T14:28:03;27.70;72.90
15700;DHT22;7950;42.744;23.174;2023-08-06T14:30:34;27.50;74.00
15700;DHT22;7950;42.744;23.174;2023-08-06T14:33:03;27.30;73.90
15700;DHT22;7950;42.744;23.174;2023-08-06T14:35:50;27.00;76.30
15700;DHT22;7950;42.744;23.174;2023-08-06T14:38:19;26.70;76.40
15700;DHT22;7950;42.744;23.174;2023-08-06T14:40:48;26.50;79.00
15700;DHT22;7950;42.744;23.174;2023-08-06T14:43:18;26.40;78.00
15700;DHT22;7950;42.744;23.174;2023-08-06T14:45:46;26.20;78.30
15700;DHT22;7950;42.744;23.174;2023-08-06T14:48:15;26.20;79.00
15700;DHT22;7950;42.744;23.174;2023-08-06T14:50:43;26.20;80.70
15700;DHT22;7950;42.744;23.174;2023-08-06T14:53:12;26.30;80.10
15700;DHT22;7950;42.744;23.174;2023-08-06T14:55:41;26.70;80.50
15700;DHT22;7950;42.744;23.174;2023-08-06T14:58:10;27.00;80.00
15700;DHT22;7950;42.744;23.174;2023-08-06T15:00:40;27.20;78.30
15700;DHT22;7950;42.744;23.174;2023-08-06T15:03:08;27.30;77.80
15700;DHT22;7950;42.744;23.174;2023-08-06T15:05:37;27.40;77.50
15700;DHT22;7950;42.744;23.174;2023-08-06T15:08:06;27.50;73.80
15700;DHT22;7950;42.744;23.174;2023-08-06T15:10:34;27.30;75.70
15700;DHT22;7950;42.744;23.174;2023-08-06T15:13:03;27.20;75.00
15700;DHT22;7950;42.744;23.174;2023-08-06T15:15:32;26.90;75.10
15700;DHT22;7950;42.744;23.174;2023-08-06T15:18:02;26.90;74.90
15700;DHT22;7950;42.744;23.174;2023-08-06T15:20:31;26.70;75.70
15700;DHT22;7950;42.744;23.174;2023-08-06T15:22:59;26.60;77.00
15700;DHT22;7950;42.744;23.174;2023-08-06T15:25:27;26.50;78.90
15700;DHT22;7950;42.744;23.174;2023-08-06T15:27:56;26.40;79.80
15700;DHT22;7950;42.744;23.174;2023-08-06T15:30:24;26.30;80.50
15700;DHT22;7950;42.744;23.174;2023-08-06T15:32:53;26.20;82.30
15700;DHT22;7950;42.744;23.174;2023-08-06T15:35:24;26.10;82.50
15700;DHT22;7950;42.744;23.174;2023-08-06T15:37:53;26.10;83.60
15700;DHT22;7950;42.744;23.174;2023-08-06T15:40:21;26.10;86.80
15700;DHT22;7950;42.744;23.174;2023-08-06T15:42:50;26.10;85.80
15700;DHT22;7950;42.744;23.174;2023-08-06T15:45:18;26.10;85.70